sensor_id;sensor_type;location;lat;lon;timestamp;P1;durP1;ratioP1;P2;durP2;ratioP2
58615;SDS011;44385;51.992;4.206;2023-06-24T00:00:34;3.45;;;2.80;;
58615;SDS011;44385;51.992;4.206;2023-06-24T00:03:04;3.70;;;3.03;;
58615;SDS011;44385;51.992;4.206;2023-06-24T00:05:32;3.85;;;2.67;;
58615;SDS011;44385;51.992;4.206;2023-06-24T00:07:58;4.78;;;3.03;;
58615;SDS011;44385;51.992;4.206;2023-06-24T00:10:27;3.33;;;2.90;;
58615;SDS011;44385;51.992;4.206;2023-06-24T00:12:53;5.18;;;3.17;;
58615;SDS011;44385;51.992;4.206;2023-06-24T00:15:20;5.05;;;3.00;;
58615;SDS011;44385;51.992;4.206;2023-06-24T00:17:46;2.90;;;2.63;;
58615;SDS011;44385;51.992;4.206;2023-06-24T00:20:16;5.18;;;3.58;;
58615;SDS011;44385;51.992;4.206;2023-06-24T00:22:45;8.40;;;3.50;;
58615;SDS011;44385;51.992;4.206;2023-06-24T00:25:13;4.43;;;3.23;;
58615;SDS011;44385;51.992;4.206;2023-06-24T00:27:40;3.75;;;3.20;;
58615;SDS011;44385;51.992;4.206;2023-06-24T00:30:07;3.47;;;2.90;;
58615;SDS011;44385;51.992;4.206;2023-06-24T00:32:33;4.50;;;3.13;;
58615;SDS011;44385;51.992;4.206;2023-06-24T00:35:00;4.93;;;3.58;;
58615;SDS011;44385;51.992;4.206;2023-06-24T00:37:28;6.40;;;3.28;;
58615;SDS011;44385;51.992;4.206;2023-06-24T00:39:54;6.15;;;3.80;;
58615;SDS011;44385;51.992;4.206;2023-06-24T00:42:20;6.50;;;3.72;;
58615;SDS011;44385;51.992;4.206;2023-06-24T00:44:47;4.15;;;3.75;;
58615;SDS011;44385;51.992;4.206;2023-06-24T00:47:14;7.00;;;4.30;;
58615;SDS011;44385;51.992;4.206;2023-06-24T00:49:41;5.88;;;4.07;;
58615;SDS011;44385;51.992;4.206;2023-06-24T00:54:42;7.65;;;4.45;;
58615;SDS011;44385;51.992;4.206;2023-06-24T00:57:08;5.35;;;4.05;;
58615;SDS011;44385;51.992;4.206;2023-06-24T00:59:35;6.20;;;4.47;;
58615;SDS011;44385;51.992;4.206;2023-06-24T01:02:02;6.50;;;4.18;;
58615;SDS011;44385;51.992;4.206;2023-06-24T01:04:29;6.10;;;4.13;;
58615;SDS011;44385;51.992;4.206;2023-06-24T01:06:58;5.60;;;4.50;;
58615;SDS011;44385;51.992;4.206;2023-06-24T01:09:25;6.05;;;4.63;;
58615;SDS011;44385;51.992;4.206;2023-06-24T01:11:53;6.63;;;4.53;;
58615;SDS011;44385;51.992;4.206;2023-06-24T01:14:19;6.20;;;4.05;;
58615;SDS011;44385;51.992;4.206;2023-06-24T01:16:49;7.22;;;4.28;;
58615;SDS011;44385;51.992;4.206;2023-06-24T01:19:24;5.68;;;4.95;;
58615;SDS011;44385;51.992;4.206;2023-06-24T01:21:59;8.50;;;4.45;;
58615;SDS011;44385;51.992;4.206;2023-06-24T01:24:35;4.75;;;4.25;;
58615;SDS011;44385;51.992;4.206;2023-06-24T01:27:19;5.28;;;4.78;;
58615;SDS011;44385;51.992;4.206;2023-06-24T01:30:10;5.80;;;4.32;;
58615;SDS011;44385;51.992;4.206;2023-06-24T01:32:42;6.20;;;4.80;;
58615;SDS011;44385;51.992;4.206;2023-06-24T01:35:11;6.15;;;5.10;;
58615;SDS011;44385;51.992;4.206;2023-06-24T01:37:40;6.55;;;5.03;;
58615;SDS011;44385;51.992;4.206;2023-06-24T01:40:09;7.72;;;4.30;;
58615;SDS011;44385;51.992;4.206;2023-06-24T01:42:38;7.60;;;5.13;;
58615;SDS011;44385;51.992;4.206;2023-06-24T01:45:05;8.10;;;4.95;;
58615;SDS011;44385;51.992;4.206;2023-06-24T01:47:32;8.30;;;5.05;;
58615;SDS011;44385;51.992;4.206;2023-06-24T01:50:01;6.90;;;4.97;;
58615;SDS011;44385;51.992;4.206;2023-06-24T01:52:28;8.95;;;4.97;;
58615;SDS011;44385;51.992;4.206;2023-06-24T01:54:55;7.22;;;4.90;;
58615;SDS011;44385;51.992;4.206;2023-06-24T01:57:22;9.95;;;4.97;;
58615;SDS011;44385;51.992;4.206;2023-06-24T01:59:49;10.70;;;5.82;;
58615;SDS011;44385;51.992;4.206;2023-06-24T02:02:17;8.35;;;5.63;;
58615;SDS011;44385;51.992;4.206;2023-06-24T02:04:45;6.63;;;5.40;;
58615;SDS011;44385;51.992;4.206;2023-06-24T02:07:13;10.68;;;5.70;;
58615;SDS011;44385;51.992;4.206;2023-06-24T02:09:40;8.68;;;5.45;;
58615;SDS011;44385;51.992;4.206;2023-06-24T02:12:08;11.10;;;6.43;;
58615;SDS011;44385;51.992;4.206;2023-06-24T02:14:35;6.72;;;5.15;;
58615;SDS011;44385;51.992;4.206;2023-06-24T02:17:03;7.18;;;5.20;;
58615;SDS011;44385;51.992;4.206;2023-06-24T02:19:30;9.45;;;5.15;;
58615;SDS011;44385;51.992;4.206;2023-06-24T02:21:58;7.65;;;5.30;;
58615;SDS011;44385;51.992;4.206;2023-06-24T02:24:26;10.18;;;5.72;;
58615;SDS011;44385;51.992;4.206;2023-06-24T02:26:53;8.73;;;5.40;;
58615;SDS011;44385;51.992;4.206;2023-06-24T02:29:20;8.25;;;5.10;;
58615;SDS011;44385;51.992;4.206;2023-06-24T02:31:47;5.55;;;4.97;;
58615;SDS011;44385;51.992;4.206;2023-06-24T02:34:15;9.82;;;5.93;;
58615;SDS011;44385;51.992;4.206;2023-06-24T02:36:41;8.05;;;5.75;;
58615;SDS011;44385;51.992;4.206;2023-06-24T02:39:08;8.48;;;5.68;;
58615;SDS011;44385;51.992;4.206;2023-06-24T02:41:35;8.30;;;6.70;;
58615;SDS011;44385;51.992;4.206;2023-06-24T02:44:02;6.60;;;6.00;;
58615;SDS011;44385;51.992;4.206;2023-06-24T02:46:29;7.65;;;6.63;;
58615;SDS011;44385;51.992;4.206;2023-06-24T02:48:57;7.85;;;6.70;;
58615;SDS011;44385;51.992;4.206;2023-06-24T02:51:24;8.10;;;7.00;;
58615;SDS011;44385;51.992;4.206;2023-06-24T02:53:51;8.02;;;6.95;;
58615;SDS011;44385;51.992;4.206;2023-06-24T02:56:18;7.35;;;6.03;;
58615;SDS011;44385;51.992;4.206;2023-06-24T02:58:47;8.63;;;6.85;;
58615;SDS011;44385;51.992;4.206;2023-06-24T03:01:13;9.30;;;7.68;;
58615;SDS011;44385;51.992;4.206;2023-06-24T03:03:40;9.85;;;7.32;;
58615;SDS011;44385;51.992;4.206;2023-06-24T03:06:07;7.88;;;7.07;;
58615;SDS011;44385;51.992;4.206;2023-06-24T03:08:37;10.77;;;8.32;;
58615;SDS011;44385;51.992;4.206;2023-06-24T03:11:04;8.35;;;7.50;;
58615;SDS011;44385;51.992;4.206;2023-06-24T03:13:30;8.20;;;6.82;;
58615;SDS011;44385;51.992;4.206;2023-06-24T03:15:58;10.45;;;7.60;;
58615;SDS011;44385;51.992;4.206;2023-06-24T03:18:24;9.02;;;7.43;;
58615;SDS011;44385;51.992;4.206;2023-06-24T03:20:51;9.43;;;7.50;;
58615;SDS011;44385;51.992;4.206;2023-06-24T03:23:18;13.30;;;8.27;;
58615;SDS011;44385;51.992;4.206;2023-06-24T03:25:44;9.02;;;7.90;;
58615;SDS011;44385;51.992;4.206;2023-06-24T03:28:11;9.50;;;8.10;;
58615;SDS011;44385;51.992;4.206;2023-06-24T03:30:38;10.90;;;8.43;;
58615;SDS011;44385;51.992;4.206;2023-06-24T03:33:06;7.82;;;7.03;;
58615;SDS011;44385;51.992;4.206;2023-06-24T03:35:32;9.43;;;7.95;;
58615;SDS011;44385;51.992;4.206;2023-06-24T03:37:59;10.43;;;7.95;;
58615;SDS011;44385;51.992;4.206;2023-06-24T03:40:25;11.38;;;8.00;;
58615;SDS011;44385;51.992;4.206;2023-06-24T03:42:51;8.32;;;7.53;;
58615;SDS011;44385;51.992;4.206;2023-06-24T03:45:18;11.00;;;7.47;;
58615;SDS011;44385;51.992;4.206;2023-06-24T03:47:44;8.63;;;6.93;;
58615;SDS011;44385;51.992;4.206;2023-06-24T03:50:13;9.73;;;6.97;;
58615;SDS011;44385;51.992;4.206;2023-06-24T03:52:39;10.65;;;7.00;;
58615;SDS011;44385;51.992;4.206;2023-06-24T03:55:06;10.23;;;7.40;;
58615;SDS011;44385;51.992;4.206;2023-06-24T03:57:32;8.93;;;7.25;;
58615;SDS011;44385;51.992;4.206;2023-06-24T03:59:59;9.85;;;7.93;;
58615;SDS011;44385;51.992;4.206;2023-06-24T04:02:25;10.13;;;7.28;;
58615;SDS011;44385;51.992;4.206;2023-06-24T04:04:52;12.95;;;6.95;;
58615;SDS011;44385;51.992;4.206;2023-06-24T04:07:22;9.40;;;7.22;;
58615;SDS011;44385;51.992;4.206;2023-06-24T04:09:53;10.20;;;7.07;;
58615;SDS011;44385;51.992;4.206;2023-06-24T04:12:20;10.60;;;7.22;;
58615;SDS011;44385;51.992;4.206;2023-06-24T04:14:47;10.15;;;8.05;;
58615;SDS011;44385;51.992;4.206;2023-06-24T04:17:13;9.68;;;7.95;;
58615;SDS011;44385;51.992;4.206;2023-06-24T04:19:39;7.72;;;6.93;;
58615;SDS011;44385;51.992;4.206;2023-06-24T04:22:07;11.00;;;7.53;;
58615;SDS011;44385;51.992;4.206;2023-06-24T04:24:34;10.13;;;7.50;;
58615;SDS011;44385;51.992;4.206;2023-06-24T04:27:01;11.57;;;7.00;;
58615;SDS011;44385;51.992;4.206;2023-06-24T04:29:27;9.65;;;6.85;;
58615;SDS011;44385;51.992;4.206;2023-06-24T04:31:54;9.10;;;7.65;;
58615;SDS011;44385;51.992;4.206;2023-06-24T04:34:20;10.63;;;8.60;;
58615;SDS011;44385;51.992;4.206;2023-06-24T04:36:47;10.05;;;8.20;;
58615;SDS011;44385;51.992;4.206;2023-06-24T04:39:19;10.52;;;7.65;;
58615;SDS011;44385;51.992;4.206;2023-06-24T04:41:48;9.00;;;7.35;;
58615;SDS011;44385;51.992;4.206;2023-06-24T04:44:15;10.55;;;8.52;;
58615;SDS011;44385;51.992;4.206;2023-06-24T04:46:41;15.45;;;8.30;;
58615;SDS011;44385;51.992;4.206;2023-06-24T04:49:07;9.02;;;8.15;;
58615;SDS011;44385;51.992;4.206;2023-06-24T04:51:34;10.07;;;8.48;;
58615;SDS011;44385;51.992;4.206;2023-06-24T04:54:00;9.60;;;8.60;;
58615;SDS011;44385;51.992;4.206;2023-06-24T04:56:27;10.45;;;9.30;;
58615;SDS011;44385;51.992;4.206;2023-06-24T04:58:55;10.32;;;7.93;;
58615;SDS011;44385;51.992;4.206;2023-06-24T05:01:22;11.90;;;8.68;;
58615;SDS011;44385;51.992;4.206;2023-06-24T05:03:48;12.25;;;9.80;;
58615;SDS011;44385;51.992;4.206;2023-06-24T05:06:15;12.57;;;9.40;;
58615;SDS011;44385;51.992;4.206;2023-06-24T05:08:41;10.07;;;8.90;;
58615;SDS011;44385;51.992;4.206;2023-06-24T05:11:07;11.15;;;9.15;;
58615;SDS011;44385;51.992;4.206;2023-06-24T05:13:34;15.13;;;9.00;;
58615;SDS011;44385;51.992;4.206;2023-06-24T05:16:01;13.75;;;9.10;;
58615;SDS011;44385;51.992;4.206;2023-06-24T05:18:31;12.52;;;9.40;;
58615;SDS011;44385;51.992;4.206;2023-06-24T05:20:57;10.82;;;9.32;;
58615;SDS011;44385;51.992;4.206;2023-06-24T05:23:24;12.55;;;10.52;;
58615;SDS011;44385;51.992;4.206;2023-06-24T05:25:50;12.10;;;10.40;;
58615;SDS011;44385;51.992;4.206;2023-06-24T05:28:17;13.85;;;9.93;;
58615;SDS011;44385;51.992;4.206;2023-06-24T05:30:44;11.35;;;9.63;;
58615;SDS011;44385;51.992;4.206;2023-06-24T05:33:12;13.07;;;10.82;;
58615;SDS011;44385;51.992;4.206;2023-06-24T05:35:38;14.93;;;9.85;;
58615;SDS011;44385;51.992;4.206;2023-06-24T05:38:06;13.70;;;9.68;;
58615;SDS011;44385;51.992;4.206;2023-06-24T05:40:33;13.18;;;10.18;;
58615;SDS011;44385;51.992;4.206;2023-06-24T05:42:59;12.07;;;10.20;;
58615;SDS011;44385;51.992;4.206;2023-06-24T05:45:28;11.48;;;9.38;;
58615;SDS011;44385;51.992;4.206;2023-06-24T05:47:54;12.00;;;9.02;;
58615;SDS011;44385;51.992;4.206;2023-06-24T05:50:22;10.48;;;9.18;;
58615;SDS011;44385;51.992;4.206;2023-06-24T05:52:48;13.65;;;10.68;;
58615;SDS011;44385;51.992;4.206;2023-06-24T05:55:15;15.63;;;9.68;;
58615;SDS011;44385;51.992;4.206;2023-06-24T05:57:41;13.48;;;10.00;;
58615;SDS011;44385;51.992;4.206;2023-06-24T06:00:08;14.20;;;9.98;;
58615;SDS011;44385;51.992;4.206;2023-06-24T06:02:34;11.77;;;9.85;;
58615;SDS011;44385;51.992;4.206;2023-06-24T06:05:01;12.77;;;9.95;;
58615;SDS011;44385;51.992;4.206;2023-06-24T06:07:28;15.80;;;10.25;;
58615;SDS011;44385;51.992;4.206;2023-06-24T06:09:55;11.77;;;9.70;;
58615;SDS011;44385;51.992;4.206;2023-06-24T06:12:21;19.25;;;11.15;;
58615;SDS011;44385;51.992;4.206;2023-06-24T06:14:48;13.00;;;10.60;;
58615;SDS011;44385;51.992;4.206;2023-06-24T06:17:14;15.95;;;9.75;;
58615;SDS011;44385;51.992;4.206;2023-06-24T06:19:40;15.60;;;10.18;;
58615;SDS011;44385;51.992;4.206;2023-06-24T06:22:07;13.85;;;10.25;;
58615;SDS011;44385;51.992;4.206;2023-06-24T06:24:35;13.02;;;9.45;;
58615;SDS011;44385;51.992;4.206;2023-06-24T06:27:01;15.63;;;10.80;;
58615;SDS011;44385;51.992;4.206;2023-06-24T06:29:27;16.40;;;10.73;;
58615;SDS011;44385;51.992;4.206;2023-06-24T06:31:54;17.98;;;11.00;;
58615;SDS011;44385;51.992;4.206;2023-06-24T06:34:22;14.50;;;10.15;;
58615;SDS011;44385;51.992;4.206;2023-06-24T06:36:48;16.55;;;9.18;;
58615;SDS011;44385;51.992;4.206;2023-06-24T06:39:15;13.57;;;10.55;;
58615;SDS011;44385;51.992;4.206;2023-06-24T06:41:43;17.88;;;10.77;;
58615;SDS011;44385;51.992;4.206;2023-06-24T06:44:09;13.90;;;9.98;;
58615;SDS011;44385;51.992;4.206;2023-06-24T06:46:35;18.60;;;11.10;;
58615;SDS011;44385;51.992;4.206;2023-06-24T06:49:02;14.00;;;10.55;;
58615;SDS011;44385;51.992;4.206;2023-06-24T06:51:29;17.58;;;11.00;;
58615;SDS011;44385;51.992;4.206;2023-06-24T06:53:55;16.73;;;10.40;;
58615;SDS011;44385;51.992;4.206;2023-06-24T06:56:22;14.73;;;10.38;;
58615;SDS011;44385;51.992;4.206;2023-06-24T06:58:51;15.73;;;11.45;;
58615;SDS011;44385;51.992;4.206;2023-06-24T07:01:17;18.80;;;10.38;;
58615;SDS011;44385;51.992;4.206;2023-06-24T07:03:44;15.70;;;10.73;;
58615;SDS011;44385;51.992;4.206;2023-06-24T07:06:10;15.35;;;11.57;;
58615;SDS011;44385;51.992;4.206;2023-06-24T07:08:38;20.38;;;10.90;;
58615;SDS011;44385;51.992;4.206;2023-06-24T07:11:04;12.88;;;9.45;;
58615;SDS011;44385;51.992;4.206;2023-06-24T07:13:31;15.05;;;9.65;;
58615;SDS011;44385;51.992;4.206;2023-06-24T07:15:58;15.52;;;10.68;;
58615;SDS011;44385;51.992;4.206;2023-06-24T07:18:25;14.77;;;9.90;;
58615;SDS011;44385;51.992;4.206;2023-06-24T07:20:55;15.77;;;9.15;;
58615;SDS011;44385;51.992;4.206;2023-06-24T07:23:21;12.90;;;8.02;;
58615;SDS011;44385;51.992;4.206;2023-06-24T07:25:48;15.30;;;8.13;;
58615;SDS011;44385;51.992;4.206;2023-06-24T07:28:14;13.07;;;9.10;;
58615;SDS011;44385;51.992;4.206;2023-06-24T07:30:41;13.75;;;8.90;;
58615;SDS011;44385;51.992;4.206;2023-06-24T07:33:09;15.55;;;8.65;;
58615;SDS011;44385;51.992;4.206;2023-06-24T07:35:35;12.15;;;7.88;;
58615;SDS011;44385;51.992;4.206;2023-06-24T07:38:01;13.30;;;8.63;;
58615;SDS011;44385;51.992;4.206;2023-06-24T07:40:28;13.43;;;8.23;;
58615;SDS011;44385;51.992;4.206;2023-06-24T07:42:55;10.27;;;7.88;;
58615;SDS011;44385;51.992;4.206;2023-06-24T07:45:21;17.35;;;8.50;;
58615;SDS011;44385;51.992;4.206;2023-06-24T07:47:48;14.43;;;8.02;;
58615;SDS011;44385;51.992;4.206;2023-06-24T07:50:16;16.58;;;8.77;;
58615;SDS011;44385;51.992;4.206;2023-06-24T07:52:42;11.45;;;8.65;;
58615;SDS011;44385;51.992;4.206;2023-06-24T07:55:09;13.07;;;8.18;;
58615;SDS011;44385;51.992;4.206;2023-06-24T07:57:35;10.50;;;7.68;;
58615;SDS011;44385;51.992;4.206;2023-06-24T08:00:02;11.48;;;7.10;;
58615;SDS011;44385;51.992;4.206;2023-06-24T08:02:29;12.95;;;8.20;;
58615;SDS011;44385;51.992;4.206;2023-06-24T08:04:56;12.30;;;6.60;;
58615;SDS011;44385;51.992;4.206;2023-06-24T08:07:24;11.45;;;7.35;;
58615;SDS011;44385;51.992;4.206;2023-06-24T08:09:50;12.13;;;7.80;;
58615;SDS011;44385;51.992;4.206;2023-06-24T08:12:16;13.43;;;8.15;;
58615;SDS011;44385;51.992;4.206;2023-06-24T08:14:43;9.82;;;7.28;;
58615;SDS011;44385;51.992;4.206;2023-06-24T08:17:09;12.40;;;8.38;;
58615;SDS011;44385;51.992;4.206;2023-06-24T08:19:35;13.65;;;8.73;;
58615;SDS011;44385;51.992;4.206;2023-06-24T08:22:02;10.93;;;7.60;;
58615;SDS011;44385;51.992;4.206;2023-06-24T08:24:31;11.98;;;7.55;;
58615;SDS011;44385;51.992;4.206;2023-06-24T08:26:57;12.75;;;8.00;;
58615;SDS011;44385;51.992;4.206;2023-06-24T08:29:23;13.60;;;7.45;;
58615;SDS011;44385;51.992;4.206;2023-06-24T08:31:50;12.40;;;6.82;;
58615;SDS011;44385;51.992;4.206;2023-06-24T08:34:16;11.32;;;7.10;;
58615;SDS011;44385;51.992;4.206;2023-06-24T08:36:42;9.02;;;6.75;;
58615;SDS011;44385;51.992;4.206;2023-06-24T08:39:09;11.73;;;7.38;;
58615;SDS011;44385;51.992;4.206;2023-06-24T08:41:37;8.07;;;6.07;;
58615;SDS011;44385;51.992;4.206;2023-06-24T08:44:04;11.90;;;7.20;;
58615;SDS011;44385;51.992;4.206;2023-06-24T08:46:30;8.32;;;6.25;;
58615;SDS011;44385;51.992;4.206;2023-06-24T08:48:59;11.40;;;6.43;;
58615;SDS011;44385;51.992;4.206;2023-06-24T08:51:29;9.38;;;6.60;;
58615;SDS011;44385;51.992;4.206;2023-06-24T08:53:57;10.05;;;6.55;;
58615;SDS011;44385;51.992;4.206;2023-06-24T08:56:24;10.32;;;6.55;;
58615;SDS011;44385;51.992;4.206;2023-06-24T08:58:52;7.95;;;6.70;;
58615;SDS011;44385;51.992;4.206;2023-06-24T09:01:18;8.00;;;6.60;;
58615;SDS011;44385;51.992;4.206;2023-06-24T09:03:44;9.30;;;6.53;;
58615;SDS011;44385;51.992;4.206;2023-06-24T09:06:11;9.48;;;6.32;;
58615;SDS011;44385;51.992;4.206;2023-06-24T09:08:38;10.00;;;6.15;;
58615;SDS011;44385;51.992;4.206;2023-06-24T09:11:06;9.15;;;6.05;;
58615;SDS011;44385;51.992;4.206;2023-06-24T09:13:34;9.38;;;6.78;;
58615;SDS011;44385;51.992;4.206;2023-06-24T09:16:09;10.80;;;7.03;;
58615;SDS011;44385;51.992;4.206;2023-06-24T09:18:37;9.70;;;6.78;;
58615;SDS011;44385;51.992;4.206;2023-06-24T09:21:04;11.52;;;6.95;;
58615;SDS011;44385;51.992;4.206;2023-06-24T09:23:32;10.27;;;6.93;;
58615;SDS011;44385;51.992;4.206;2023-06-24T09:26:01;7.53;;;6.80;;
58615;SDS011;44385;51.992;4.206;2023-06-24T09:28:27;9.98;;;7.05;;
58615;SDS011;44385;51.992;4.206;2023-06-24T09:31:04;6.80;;;5.65;;
58615;SDS011;44385;51.992;4.206;2023-06-24T09:33:32;6.65;;;5.57;;
58615;SDS011;44385;51.992;4.206;2023-06-24T09:35:59;7.93;;;5.40;;
58615;SDS011;44385;51.992;4.206;2023-06-24T09:38:34;7.78;;;5.45;;
58615;SDS011;44385;51.992;4.206;2023-06-24T09:41:01;6.93;;;5.60;;
58615;SDS011;44385;51.992;4.206;2023-06-24T09:43:29;7.67;;;5.83;;
58615;SDS011;44385;51.992;4.206;2023-06-24T09:45:55;6.10;;;5.47;;
58615;SDS011;44385;51.992;4.206;2023-06-24T09:48:22;6.68;;;5.50;;
58615;SDS011;44385;51.992;4.206;2023-06-24T09:50:50;7.50;;;5.50;;
58615;SDS011;44385;51.992;4.206;2023-06-24T09:53:17;7.35;;;5.72;;
58615;SDS011;44385;51.992;4.206;2023-06-24T09:55:43;10.32;;;7.50;;
58615;SDS011;44385;51.992;4.206;2023-06-24T09:58:12;11.43;;;6.53;;
58615;SDS011;44385;51.992;4.206;2023-06-24T10:00:39;8.50;;;6.82;;
58615;SDS011;44385;51.992;4.206;2023-06-24T10:03:06;10.98;;;7.50;;
58615;SDS011;44385;51.992;4.206;2023-06-24T10:05:33;11.45;;;7.75;;
58615;SDS011;44385;51.992;4.206;2023-06-24T10:08:00;10.52;;;6.93;;
58615;SDS011;44385;51.992;4.206;2023-06-24T10:10:28;10.38;;;6.75;;
58615;SDS011;44385;51.992;4.206;2023-06-24T10:12:55;10.43;;;6.75;;
58615;SDS011;44385;51.992;4.206;2023-06-24T10:15:21;9.45;;;7.10;;
58615;SDS011;44385;51.992;4.206;2023-06-24T10:17:48;11.00;;;6.75;;
58615;SDS011;44385;51.992;4.206;2023-06-24T10:20:23;8.68;;;6.00;;
58615;SDS011;44385;51.992;4.206;2023-06-24T10:22:50;6.82;;;5.78;;
58615;SDS011;44385;51.992;4.206;2023-06-24T10:25:18;8.60;;;6.53;;
58615;SDS011;44385;51.992;4.206;2023-06-24T10:27:46;12.35;;;7.25;;
58615;SDS011;44385;51.992;4.206;2023-06-24T10:30:17;10.27;;;7.80;;
58615;SDS011;44385;51.992;4.206;2023-06-24T10:32:43;12.07;;;7.53;;
58615;SDS011;44385;51.992;4.206;2023-06-24T10:35:21;11.60;;;6.93;;
58615;SDS011;44385;51.992;4.206;2023-06-24T10:37:53;9.38;;;7.20;;
58615;SDS011;44385;51.992;4.206;2023-06-24T10:40:28;11.73;;;7.50;;
58615;SDS011;44385;51.992;4.206;2023-06-24T10:43:00;7.88;;;6.65;;
58615;SDS011;44385;51.992;4.206;2023-06-24T10:45:26;11.15;;;7.32;;
58615;SDS011;44385;51.992;4.206;2023-06-24T10:47:53;9.20;;;7.57;;
58615;SDS011;44385;51.992;4.206;2023-06-24T10:50:21;13.73;;;7.93;;
58615;SDS011;44385;51.992;4.206;2023-06-24T10:52:49;10.52;;;7.72;;
58615;SDS011;44385;51.992;4.206;2023-06-24T10:55:18;13.05;;;7.72;;
58615;SDS011;44385;51.992;4.206;2023-06-24T10:57:46;9.63;;;7.90;;
58615;SDS011;44385;51.992;4.206;2023-06-24T11:00:13;11.90;;;8.18;;
58615;SDS011;44385;51.992;4.206;2023-06-24T11:02:40;10.98;;;8.73;;
58615;SDS011;44385;51.992;4.206;2023-06-24T11:05:06;10.98;;;8.10;;
58615;SDS011;44385;51.992;4.206;2023-06-24T11:07:34;11.15;;;8.50;;
58615;SDS011;44385;51.992;4.206;2023-06-24T11:10:01;13.20;;;9.95;;
58615;SDS011;44385;51.992;4.206;2023-06-24T11:12:30;11.50;;;8.23;;
58615;SDS011;44385;51.992;4.206;2023-06-24T11:14:58;10.45;;;9.10;;
58615;SDS011;44385;51.992;4.206;2023-06-24T11:17:25;9.98;;;8.98;;
58615;SDS011;44385;51.992;4.206;2023-06-24T11:19:52;11.57;;;8.65;;
58615;SDS011;44385;51.992;4.206;2023-06-24T11:22:18;11.70;;;9.32;;
58615;SDS011;44385;51.992;4.206;2023-06-24T11:24:45;12.20;;;9.45;;
58615;SDS011;44385;51.992;4.206;2023-06-24T11:27:12;12.38;;;9.43;;
58615;SDS011;44385;51.992;4.206;2023-06-24T11:29:38;13.65;;;9.93;;
58615;SDS011;44385;51.992;4.206;2023-06-24T11:32:08;14.57;;;10.30;;
58615;SDS011;44385;51.992;4.206;2023-06-24T11:34:35;14.20;;;9.60;;
58615;SDS011;44385;51.992;4.206;2023-06-24T11:37:08;13.30;;;10.30;;
58615;SDS011;44385;51.992;4.206;2023-06-24T11:39:35;12.25;;;10.07;;
58615;SDS011;44385;51.992;4.206;2023-06-24T11:42:02;11.60;;;10.40;;
58615;SDS011;44385;51.992;4.206;2023-06-24T11:47:04;11.65;;;10.45;;
58615;SDS011;44385;51.992;4.206;2023-06-24T11:49:32;13.32;;;10.13;;
58615;SDS011;44385;51.992;4.206;2023-06-24T11:51:58;11.13;;;10.02;;
58615;SDS011;44385;51.992;4.206;2023-06-24T11:54:25;11.52;;;10.20;;
58615;SDS011;44385;51.992;4.206;2023-06-24T11:56:51;12.32;;;10.18;;
58615;SDS011;44385;51.992;4.206;2023-06-24T11:59:18;15.02;;;11.55;;
58615;SDS011;44385;51.992;4.206;2023-06-24T12:01:45;12.40;;;11.13;;
58615;SDS011;44385;51.992;4.206;2023-06-24T12:04:12;15.73;;;11.77;;
58615;SDS011;44385;51.992;4.206;2023-06-24T12:06:41;12.27;;;11.02;;
58615;SDS011;44385;51.992;4.206;2023-06-24T12:09:07;12.13;;;10.93;;
58615;SDS011;44385;51.992;4.206;2023-06-24T12:11:36;13.95;;;11.75;;
58615;SDS011;44385;51.992;4.206;2023-06-24T12:14:02;13.43;;;12.02;;
58615;SDS011;44385;51.992;4.206;2023-06-24T12:16:29;14.77;;;11.88;;
58615;SDS011;44385;51.992;4.206;2023-06-24T12:18:55;12.48;;;11.25;;
58615;SDS011;44385;51.992;4.206;2023-06-24T12:21:22;15.40;;;12.80;;
58615;SDS011;44385;51.992;4.206;2023-06-24T12:23:50;13.95;;;12.10;;
58615;SDS011;44385;51.992;4.206;2023-06-24T12:26:16;12.98;;;11.23;;
58615;SDS011;44385;51.992;4.206;2023-06-24T12:28:42;18.40;;;13.45;;
58615;SDS011;44385;51.992;4.206;2023-06-24T12:31:09;16.55;;;12.65;;
58615;SDS011;44385;51.992;4.206;2023-06-24T12:33:35;15.98;;;14.15;;
58615;SDS011;44385;51.992;4.206;2023-06-24T12:36:02;15.10;;;13.13;;
58615;SDS011;44385;51.992;4.206;2023-06-24T12:38:28;17.88;;;14.82;;
58615;SDS011;44385;51.992;4.206;2023-06-24T12:40:56;14.77;;;13.18;;
58615;SDS011;44385;51.992;4.206;2023-06-24T12:43:22;14.73;;;13.02;;
58615;SDS011;44385;51.992;4.206;2023-06-24T12:45:49;16.25;;;13.75;;
58615;SDS011;44385;51.992;4.206;2023-06-24T12:48:16;14.02;;;12.50;;
58615;SDS011;44385;51.992;4.206;2023-06-24T12:50:42;13.63;;;12.38;;
58615;SDS011;44385;51.992;4.206;2023-06-24T12:53:09;14.02;;;11.93;;
58615;SDS011;44385;51.992;4.206;2023-06-24T12:55:38;13.68;;;12.38;;
58615;SDS011;44385;51.992;4.206;2023-06-24T12:58:06;14.10;;;12.55;;
58615;SDS011;44385;51.992;4.206;2023-06-24T13:00:32;14.80;;;13.27;;
58615;SDS011;44385;51.992;4.206;2023-06-24T13:02:58;14.82;;;13.25;;
58615;SDS011;44385;51.992;4.206;2023-06-24T13:05:25;15.48;;;13.85;;
58615;SDS011;44385;51.992;4.206;2023-06-24T13:07:51;14.20;;;12.75;;
58615;SDS011;44385;51.992;4.206;2023-06-24T13:10:17;16.23;;;12.73;;
58615;SDS011;44385;51.992;4.206;2023-06-24T13:12:44;14.70;;;13.10;;
58615;SDS011;44385;51.992;4.206;2023-06-24T13:15:12;15.65;;;12.73;;
58615;SDS011;44385;51.992;4.206;2023-06-24T13:17:39;17.70;;;14.88;;
58615;SDS011;44385;51.992;4.206;2023-06-24T13:20:07;17.67;;;14.45;;
58615;SDS011;44385;51.992;4.206;2023-06-24T13:22:33;17.17;;;14.02;;
58615;SDS011;44385;51.992;4.206;2023-06-24T13:25:00;15.55;;;13.88;;
58615;SDS011;44385;51.992;4.206;2023-06-24T13:27:26;14.80;;;13.30;;
58615;SDS011;44385;51.992;4.206;2023-06-24T13:29:52;15.77;;;13.25;;
58615;SDS011;44385;51.992;4.206;2023-06-24T13:32:20;13.85;;;11.88;;
58615;SDS011;44385;51.992;4.206;2023-06-24T13:34:46;15.65;;;11.25;;
58615;SDS011;44385;51.992;4.206;2023-06-24T13:37:13;17.40;;;14.25;;
58615;SDS011;44385;51.992;4.206;2023-06-24T13:39:39;18.48;;;14.27;;
58615;SDS011;44385;51.992;4.206;2023-06-24T13:42:06;12.63;;;11.32;;
58615;SDS011;44385;51.992;4.206;2023-06-24T13:44:32;14.80;;;12.13;;
58615;SDS011;44385;51.992;4.206;2023-06-24T13:46:59;15.15;;;12.18;;
58615;SDS011;44385;51.992;4.206;2023-06-24T13:49:27;13.18;;;10.82;;
58615;SDS011;44385;51.992;4.206;2023-06-24T13:51:53;16.02;;;14.38;;
58615;SDS011;44385;51.992;4.206;2023-06-24T13:54:20;17.65;;;11.80;;
58615;SDS011;44385;51.992;4.206;2023-06-24T13:56:46;16.48;;;14.43;;
58615;SDS011;44385;51.992;4.206;2023-06-24T13:59:13;13.38;;;11.32;;
58615;SDS011;44385;51.992;4.206;2023-06-24T14:01:39;16.05;;;12.98;;
58615;SDS011;44385;51.992;4.206;2023-06-24T14:04:06;13.32;;;11.55;;
58615;SDS011;44385;51.992;4.206;2023-06-24T14:06:33;28.05;;;12.70;;
58615;SDS011;44385;51.992;4.206;2023-06-24T14:09:00;45.60;;;16.23;;
58615;SDS011;44385;51.992;4.206;2023-06-24T14:11:26;26.13;;;18.80;;
58615;SDS011;44385;51.992;4.206;2023-06-24T14:13:52;23.58;;;18.17;;
58615;SDS011;44385;51.992;4.206;2023-06-24T14:16:19;13.18;;;11.60;;
58615;SDS011;44385;51.992;4.206;2023-06-24T14:18:45;15.00;;;13.50;;
58615;SDS011;44385;51.992;4.206;2023-06-24T14:21:12;14.98;;;12.25;;
58615;SDS011;44385;51.992;4.206;2023-06-24T14:23:39;15.73;;;13.98;;
58615;SDS011;44385;51.992;4.206;2023-06-24T14:26:07;17.40;;;15.57;;
58615;SDS011;44385;51.992;4.206;2023-06-24T14:28:33;14.45;;;12.98;;
58615;SDS011;44385;51.992;4.206;2023-06-24T14:31:00;16.25;;;14.65;;
58615;SDS011;44385;51.992;4.206;2023-06-24T14:33:26;14.07;;;12.57;;
58615;SDS011;44385;51.992;4.206;2023-06-24T14:35:53;19.17;;;14.35;;
58615;SDS011;44385;51.992;4.206;2023-06-24T14:38:19;20.67;;;17.35;;
58615;SDS011;44385;51.992;4.206;2023-06-24T14:40:47;27.23;;;22.30;;